createdAt,value
2018-02-27T00:00:25.531Z,-9.30
2018-02-27T00:02:53.079Z,-9.30
2018-02-27T00:05:20.653Z,-9.40
2018-02-27T00:07:48.207Z,-9.40
2018-02-27T00:10:15.768Z,-9.40
2018-02-27T00:12:43.343Z,-9.40
2018-02-27T00:15:10.898Z,-9.40
2018-02-27T00:17:38.474Z,-9.50
2018-02-27T00:20:06.015Z,-9.50
2018-02-27T00:22:33.562Z,-9.50
2018-02-27T00:25:01.128Z,-9.50
2018-02-27T00:27:28.675Z,-9.50
2018-02-27T00:29:56.245Z,-9.50
2018-02-27T00:32:23.790Z,-9.50
2018-02-27T00:34:51.365Z,-9.50
2018-02-27T00:37:18.916Z,-9.50
2018-02-27T00:39:46.464Z,-9.50
2018-02-27T00:42:14.032Z,-9.60
2018-02-27T00:44:41.588Z,-9.60
2018-02-27T00:47:09.170Z,-9.60
2018-02-27T00:49:36.913Z,-9.70
2018-02-27T00:52:04.455Z,-9.70
2018-02-27T00:54:32.043Z,-9.80
2018-02-27T00:56:59.584Z,-9.80
2018-02-27T00:59:27.127Z,-9.80
2018-02-27T01:01:54.692Z,-9.80
2018-02-27T01:04:22.236Z,-9.80
2018-02-27T01:06:51.484Z,-9.90
2018-02-27T01:09:19.055Z,-9.90
2018-02-27T01:11:46.602Z,-9.90
2018-02-27T01:14:14.166Z,-9.90
2018-02-27T01:16:42.482Z,-10.00
2018-02-27T01:19:10.832Z,-10.00
2018-02-27T01:21:38.395Z,-10.00
2018-02-27T01:24:05.953Z,-10.00
2018-02-27T01:26:33.530Z,-10.00
2018-02-27T01:29:01.087Z,-10.10
2018-02-27T01:31:28.639Z,-10.00
2018-02-27T01:33:56.245Z,-10.00
2018-02-27T01:36:23.794Z,-10.10
2018-02-27T01:38:51.364Z,-10.00
2018-02-27T01:41:18.928Z,-10.10
2018-02-27T01:43:46.475Z,-10.10
2018-02-27T01:46:14.818Z,-10.10
2018-02-27T01:48:42.380Z,-10.10
2018-02-27T01:51:14.858Z,-10.10
2018-02-27T01:53:42.422Z,-10.10
2018-02-27T01:56:09.981Z,-10.10
2018-02-27T01:58:37.559Z,-10.10
2018-02-27T02:01:05.879Z,-10.10
2018-02-27T02:03:33.439Z,-10.20
2018-02-27T02:06:01.033Z,-10.20
2018-02-27T02:08:28.586Z,-10.20
2018-02-27T02:10:56.145Z,-10.20
2018-02-27T02:13:29.652Z,-10.20
2018-02-27T02:15:58.016Z,-10.20
2018-02-27T02:18:25.570Z,-10.20
2018-02-27T02:20:53.153Z,-10.20
2018-02-27T02:23:20.712Z,-10.20
2018-02-27T02:25:48.267Z,-10.20
2018-02-27T02:28:15.887Z,-10.20
2018-02-27T02:30:43.440Z,-10.20
2018-02-27T02:33:10.991Z,-10.20
2018-02-27T02:35:38.576Z,-10.10
2018-02-27T02:38:06.203Z,-10.10
2018-02-27T02:40:33.727Z,-10.10
2018-02-27T02:43:01.317Z,-10.10
2018-02-27T02:45:29.636Z,-10.10
2018-02-27T02:47:57.202Z,-10.20
2018-02-27T02:50:24.788Z,-10.10
2018-02-27T02:52:52.342Z,-10.10
2018-02-27T02:55:19.895Z,-10.20
2018-02-27T02:57:47.466Z,-10.20
2018-02-27T03:00:15.019Z,-10.20
2018-02-27T03:02:42.606Z,-10.10
2018-02-27T03:05:10.176Z,-10.10
2018-02-27T03:07:38.507Z,-10.20
2018-02-27T03:10:06.102Z,-10.20
2018-02-27T03:12:41.883Z,-10.20
2018-02-27T03:15:09.476Z,-10.20
2018-02-27T03:17:37.028Z,-10.20
2018-02-27T03:20:04.574Z,-10.20
2018-02-27T03:22:32.149Z,-10.20
2018-02-27T03:24:59.722Z,-10.20
2018-02-27T03:27:27.291Z,-10.20
2018-02-27T03:29:54.844Z,-10.20
2018-02-27T03:32:22.394Z,-10.10
2018-02-27T03:34:49.972Z,-10.10
2018-02-27T03:37:17.525Z,-10.20
2018-02-27T03:39:45.855Z,-10.20
2018-02-27T03:42:13.454Z,-10.20
2018-02-27T03:44:41.035Z,-10.20
2018-02-27T03:47:08.588Z,-10.20
2018-02-27T03:49:36.183Z,-10.30
2018-02-27T03:52:03.753Z,-10.30
2018-02-27T03:54:31.322Z,-10.30
2018-02-27T03:56:59.663Z,-10.40
2018-02-27T03:59:34.735Z,-10.40
2018-02-27T04:02:03.082Z,-10.40
2018-02-27T04:04:30.639Z,-10.40
2018-02-27T04:06:58.186Z,-10.40
2018-02-27T04:09:25.844Z,-10.40
2018-02-27T04:11:53.338Z,-10.40
2018-02-27T04:14:20.929Z,-10.50
2018-02-27T04:16:48.478Z,-10.50
2018-02-27T04:19:16.796Z,-10.50
2018-02-27T04:21:45.151Z,-10.60
2018-02-27T04:24:12.708Z,-10.60
2018-02-27T04:26:40.295Z,-10.50
2018-02-27T04:29:07.881Z,-10.60
2018-02-27T04:31:35.468Z,-10.60
2018-02-27T04:34:03.036Z,-10.60
2018-02-27T04:36:30.623Z,-10.60
2018-02-27T04:39:02.939Z,-10.70
2018-02-27T04:41:30.517Z,-10.70
2018-02-27T04:43:58.839Z,-10.80
2018-02-27T04:46:26.417Z,-10.80
2018-02-27T04:48:53.987Z,-10.80
2018-02-27T04:51:21.550Z,-10.80
2018-02-27T04:53:49.133Z,-10.80
2018-02-27T04:56:17.451Z,-10.90
2018-02-27T04:58:45.008Z,-10.90
2018-02-27T05:01:12.607Z,-10.90
2018-02-27T05:03:40.180Z,-10.90
2018-02-27T05:06:07.726Z,-10.90
2018-02-27T05:08:35.317Z,-10.90
2018-02-27T05:11:03.662Z,-10.90
2018-02-27T05:13:31.250Z,-10.90
2018-02-27T05:15:59.570Z,-11.00
2018-02-27T05:18:27.126Z,-11.00
2018-02-27T05:20:54.708Z,-11.00
2018-02-27T05:23:22.259Z,-11.00
2018-02-27T05:25:49.815Z,-11.00
2018-02-27T05:28:17.390Z,-11.00
2018-02-27T05:30:44.969Z,-11.00
2018-02-27T05:33:12.536Z,-11.00
2018-02-27T05:35:40.122Z,-11.00
2018-02-27T05:38:08.437Z,-11.10
2018-02-27T05:40:36.051Z,-11.10
2018-02-27T05:43:04.376Z,-11.10
2018-02-27T05:45:31.942Z,-11.10
2018-02-27T05:47:59.514Z,-11.10
2018-02-27T05:50:27.832Z,-11.10
2018-02-27T05:52:56.186Z,-11.10
2018-02-27T05:55:23.746Z,-11.10
2018-02-27T05:57:51.310Z,-11.10
2018-02-27T06:00:18.891Z,-11.10
2018-02-27T06:02:47.214Z,-11.20
2018-02-27T06:05:14.764Z,-11.20
2018-02-27T06:07:42.339Z,-11.10
2018-02-27T06:10:10.909Z,-11.10
2018-02-27T06:12:38.473Z,-11.10
2018-02-27T06:15:06.054Z,-11.20
2018-02-27T06:17:33.598Z,-11.10
2018-02-27T06:20:01.156Z,-11.10
2018-02-27T06:22:28.747Z,-11.10
2018-02-27T06:24:56.306Z,-11.00
2018-02-27T06:27:23.858Z,-11.00
2018-02-27T06:29:51.450Z,-11.00
2018-02-27T06:32:19.007Z,-11.00
2018-02-27T06:34:47.338Z,-10.90
2018-02-27T06:37:14.921Z,-11.00
2018-02-27T06:39:42.480Z,-10.90
2018-02-27T06:42:10.048Z,-10.90
2018-02-27T06:44:37.600Z,-10.80
2018-02-27T06:47:05.179Z,-10.80
2018-02-27T06:49:32.723Z,-10.80
2018-02-27T06:52:00.300Z,-10.70
2018-02-27T06:54:27.880Z,-10.60
2018-02-27T06:56:56.212Z,-10.50
2018-02-27T06:59:23.811Z,-10.50
2018-02-27T07:01:52.139Z,-10.30
2018-02-27T07:04:19.689Z,-10.30
2018-02-27T07:06:47.276Z,-10.20
2018-02-27T07:09:14.905Z,-10.10
2018-02-27T07:11:42.476Z,-10.00
2018-02-27T07:14:10.072Z,-10.00
2018-02-27T07:16:37.659Z,-9.90
2018-02-27T07:19:06.013Z,-9.80
2018-02-27T07:21:33.574Z,-9.80
2018-02-27T07:24:01.123Z,-9.70
2018-02-27T07:26:28.719Z,-9.70
2018-02-27T07:28:57.045Z,-9.60
2018-02-27T07:31:24.603Z,-9.70
2018-02-27T07:33:52.185Z,-9.60
2018-02-27T07:36:19.743Z,-9.50
2018-02-27T07:38:47.334Z,-9.50
2018-02-27T07:41:15.643Z,-9.50
2018-02-27T07:43:43.190Z,-9.50
2018-02-27T07:46:10.793Z,-9.60
2018-02-27T07:48:38.343Z,-9.60
2018-02-27T07:51:05.899Z,-9.60
2018-02-27T07:53:33.475Z,-9.60
2018-02-27T07:56:01.031Z,-9.60
2018-02-27T07:58:29.366Z,-9.60
2018-02-27T08:00:56.956Z,-9.60
2018-02-27T08:03:24.512Z,-9.50
2018-02-27T08:05:52.116Z,-9.40
2018-02-27T08:08:19.688Z,-9.40
2018-02-27T08:10:48.009Z,-9.50
2018-02-27T08:13:15.594Z,-9.50
2018-02-27T08:15:43.147Z,-9.50
2018-02-27T08:18:10.731Z,-9.50
2018-02-27T08:20:38.301Z,-9.40
2018-02-27T08:23:05.839Z,-9.30
2018-02-27T08:25:33.421Z,-9.30
2018-02-27T08:28:00.975Z,-9.20
2018-02-27T08:30:28.572Z,-9.20
2018-02-27T08:32:56.154Z,-9.20
2018-02-27T08:35:23.698Z,-9.20
2018-02-27T08:37:51.275Z,-9.10
2018-02-27T08:40:18.826Z,-9.00
2018-02-27T08:42:46.380Z,-9.00
2018-02-27T08:45:13.967Z,-9.00
2018-02-27T08:47:42.283Z,-8.90
2018-02-27T08:50:10.618Z,-8.80
2018-02-27T08:52:38.218Z,-8.80
2018-02-27T08:55:05.771Z,-8.90
2018-02-27T08:57:33.388Z,-9.00
2018-02-27T09:00:01.054Z,-8.90
2018-02-27T09:02:28.623Z,-8.80
2018-02-27T09:04:56.967Z,-8.70
2018-02-27T09:07:24.526Z,-8.70
2018-02-27T09:09:52.107Z,-8.70
2018-02-27T09:12:19.652Z,-8.80
2018-02-27T09:14:47.211Z,-8.80
2018-02-27T09:17:14.795Z,-8.90
2018-02-27T09:19:42.352Z,-8.90
2018-02-27T09:22:09.910Z,-8.80
2018-02-27T09:24:37.503Z,-8.70
2018-02-27T09:27:05.053Z,-8.60
2018-02-27T09:29:32.614Z,-8.50
2018-02-27T09:32:00.209Z,-8.40
2018-02-27T09:34:27.776Z,-8.20
2018-02-27T09:36:56.122Z,-8.10
2018-02-27T09:39:23.676Z,-8.10
2018-02-27T09:41:51.268Z,-8.00
2018-02-27T09:44:19.619Z,-7.90
2018-02-27T09:46:47.969Z,-7.90
2018-02-27T09:49:15.529Z,-7.90
2018-02-27T09:51:43.125Z,-7.80
2018-02-27T09:54:10.682Z,-7.70
2018-02-27T09:56:38.264Z,-7.50
2018-02-27T09:59:06.588Z,-7.20
2018-02-27T10:01:34.155Z,-7.20
2018-02-27T10:04:01.751Z,-7.20
2018-02-27T10:06:29.312Z,-7.00
2018-02-27T10:08:56.902Z,-6.90
2018-02-27T10:11:25.227Z,-6.90
2018-02-27T10:13:52.916Z,-6.90
2018-02-27T10:16:20.492Z,-7.00
2018-02-27T10:18:48.820Z,-6.90
2018-02-27T10:21:16.382Z,-6.90
2018-02-27T10:23:44.068Z,-6.90
2018-02-27T10:26:11.620Z,-6.90
2018-02-27T10:28:39.312Z,-6.80
2018-02-27T10:31:07.651Z,-6.80
2018-02-27T10:33:35.319Z,-6.80
2018-02-27T10:36:02.937Z,-6.60
2018-02-27T10:38:30.505Z,-6.40
2018-02-27T10:40:58.094Z,-6.30
2018-02-27T10:43:25.658Z,-6.30
2018-02-27T10:45:53.215Z,-6.40
2018-02-27T10:48:20.801Z,-6.20
2018-02-27T10:50:48.360Z,-6.20
2018-02-27T10:53:15.923Z,-6.30
2018-02-27T10:55:43.533Z,-6.40
2018-02-27T10:58:11.873Z,-6.60
2018-02-27T11:00:45.060Z,-6.60
2018-02-27T11:03:12.603Z,-6.50
2018-02-27T11:05:40.154Z,-6.60
2018-02-27T11:08:07.740Z,-6.60
2018-02-27T11:10:35.308Z,-6.60
2018-02-27T11:13:03.663Z,-6.80
2018-02-27T11:15:31.246Z,-6.90
2018-02-27T11:17:59.566Z,-6.90
2018-02-27T11:20:27.125Z,-6.90
2018-02-27T11:22:54.822Z,-6.90
2018-02-27T11:25:22.388Z,-7.00
2018-02-27T11:27:49.972Z,-7.10
2018-02-27T11:30:18.367Z,-6.90
2018-02-27T11:32:46.430Z,-6.90
2018-02-27T11:35:14.767Z,-6.80
2018-02-27T11:37:42.328Z,-6.80
2018-02-27T11:40:09.894Z,-6.80
2018-02-27T11:42:37.484Z,-6.80
2018-02-27T11:45:05.039Z,-6.80
2018-02-27T11:47:33.397Z,-6.60
2018-02-27T11:50:01.330Z,-6.60
2018-02-27T11:52:28.883Z,-6.50
2018-02-27T11:54:56.456Z,-6.20
2018-02-27T11:57:24.074Z,-6.00
2018-02-27T11:59:51.646Z,-5.90
2018-02-27T12:02:19.200Z,-5.90
2018-02-27T12:04:46.801Z,-6.00
2018-02-27T12:07:14.358Z,-6.00
2018-02-27T12:09:41.922Z,-6.00
2018-02-27T12:12:09.499Z,-6.00
2018-02-27T12:14:37.051Z,-6.10
2018-02-27T12:17:05.545Z,-5.90
2018-02-27T12:19:33.902Z,-5.80
2018-02-27T12:22:01.442Z,-6.00
2018-02-27T12:24:29.011Z,-5.70
2018-02-27T12:26:56.590Z,-5.50
2018-02-27T12:29:24.167Z,-5.30
2018-02-27T12:31:52.538Z,-5.30
2018-02-27T12:34:20.086Z,-5.40
2018-02-27T12:36:47.661Z,-5.40
2018-02-27T12:39:15.240Z,-5.50
2018-02-27T12:41:42.783Z,-5.40
2018-02-27T12:44:10.344Z,-5.40
2018-02-27T12:46:37.924Z,-5.60
2018-02-27T12:49:05.497Z,-5.60
2018-02-27T12:51:33.870Z,-5.70
2018-02-27T12:54:02.226Z,-5.80
2018-02-27T12:56:29.770Z,-5.80
2018-02-27T12:58:57.399Z,-6.00
2018-02-27T13:01:24.984Z,-6.40
2018-02-27T13:03:52.538Z,-6.60
2018-02-27T13:06:20.121Z,-6.70
2018-02-27T13:08:47.702Z,-6.70
2018-02-27T13:11:15.283Z,-6.70
2018-02-27T13:13:43.637Z,-6.40
2018-02-27T13:16:11.192Z,-6.50
2018-02-27T13:18:38.764Z,-6.30
2018-02-27T13:21:06.311Z,-6.10
2018-02-27T13:23:37.854Z,-6.10
2018-02-27T13:26:05.426Z,-5.80
2018-02-27T13:28:32.982Z,-5.70
2018-02-27T13:31:00.601Z,-5.60
2018-02-27T13:33:28.138Z,-5.40
2018-02-27T13:35:56.470Z,-5.20
2018-02-27T13:38:24.055Z,-5.20
2018-02-27T13:40:51.595Z,-5.20
2018-02-27T13:43:19.167Z,-5.10
2018-02-27T13:45:46.761Z,-5.20
2018-02-27T13:48:15.079Z,-5.50
2018-02-27T13:50:42.638Z,-5.50
2018-02-27T13:53:10.314Z,-5.60
2018-02-27T13:55:37.875Z,-5.80
2018-02-27T13:58:05.545Z,-5.90
2018-02-27T14:00:33.136Z,-6.00
2018-02-27T14:03:00.745Z,-6.20
2018-02-27T14:05:28.418Z,-6.30
2018-02-27T14:07:56.002Z,-6.30
2018-02-27T14:10:23.582Z,-6.20
2018-02-27T14:12:51.926Z,-5.90
2018-02-27T14:15:20.472Z,-5.90
2018-02-27T14:17:48.043Z,-5.70
2018-02-27T14:20:15.650Z,-5.60
2018-02-27T14:23:01.769Z,-5.60
2018-02-27T14:25:29.327Z,-5.60
2018-02-27T14:27:56.882Z,-5.50
2018-02-27T14:30:25.234Z,-5.50
2018-02-27T14:32:52.783Z,-5.50
2018-02-27T14:35:20.342Z,-5.40
2018-02-27T14:37:47.935Z,-5.30
2018-02-27T14:40:16.246Z,-5.40
2018-02-27T14:42:43.832Z,-5.50
2018-02-27T14:45:11.408Z,-5.60
2018-02-27T14:47:39.022Z,-5.70
2018-02-27T14:50:06.621Z,-5.70
2018-02-27T14:52:34.183Z,-5.80
2018-02-27T14:55:01.753Z,-5.90
2018-02-27T14:57:29.307Z,-6.00
2018-02-27T14:59:56.928Z,-6.00
2018-02-27T15:02:24.505Z,-6.00
2018-02-27T15:04:52.055Z,-6.10
2018-02-27T15:07:19.637Z,-6.10
2018-02-27T15:09:47.945Z,-6.00
2018-02-27T15:12:16.084Z,-6.00
2018-02-27T15:14:43.687Z,-6.00
2018-02-27T15:17:14.035Z,-6.00
2018-02-27T15:19:41.581Z,-6.00
2018-02-27T15:22:10.623Z,-6.00
2018-02-27T15:24:38.193Z,-6.00
2018-02-27T15:27:05.771Z,-6.00
2018-02-27T15:29:34.868Z,-6.10
2018-02-27T15:32:02.424Z,-6.30
2018-02-27T15:34:29.998Z,-6.30
2018-02-27T15:36:57.562Z,-6.40
2018-02-27T15:39:27.112Z,-6.40
2018-02-27T15:41:54.690Z,-6.40
2018-02-27T15:44:22.272Z,-6.50
2018-02-27T15:46:50.611Z,-6.60
2018-02-27T15:49:18.226Z,-6.60
2018-02-27T15:51:45.771Z,-6.50
2018-02-27T15:54:13.397Z,-6.50
2018-02-27T15:56:40.983Z,-6.60
2018-02-27T15:59:08.536Z,-6.60
2018-02-27T16:01:36.111Z,-6.60
2018-02-27T16:04:06.935Z,-6.60
2018-02-27T16:06:34.479Z,-6.60
2018-02-27T16:09:02.082Z,-6.60
2018-02-27T16:11:29.636Z,-6.60
2018-02-27T16:13:57.187Z,-6.70
2018-02-27T16:16:24.789Z,-6.70
2018-02-27T16:18:52.362Z,-6.70
2018-02-27T16:21:19.937Z,-6.70
2018-02-27T16:23:47.523Z,-6.70
2018-02-27T16:26:15.088Z,-6.80
2018-02-27T16:28:42.647Z,-6.80
2018-02-27T16:31:10.286Z,-6.90
2018-02-27T16:33:37.838Z,-6.90
2018-02-27T16:36:05.437Z,-6.90
2018-02-27T16:38:33.922Z,-6.90
2018-02-27T16:41:02.254Z,-7.00
2018-02-27T16:43:29.826Z,-7.10
2018-02-27T16:45:57.392Z,-7.10
2018-02-27T16:48:38.415Z,-7.10
2018-02-27T16:51:21.108Z,-7.10
2018-02-27T16:53:49.719Z,-7.10
2018-02-27T16:56:34.991Z,-7.20
2018-02-27T16:59:04.305Z,-7.20
2018-02-27T17:01:32.691Z,-7.30
2018-02-27T17:04:01.021Z,-7.30
2018-02-27T17:06:28.635Z,-7.30
2018-02-27T17:08:56.515Z,-7.30
2018-02-27T17:11:24.338Z,-7.30
2018-02-27T17:13:51.928Z,-7.30
2018-02-27T17:16:19.500Z,-7.40
2018-02-27T17:18:47.096Z,-7.40
2018-02-27T17:21:14.643Z,-7.40
2018-02-27T17:23:42.195Z,-7.40
2018-02-27T17:26:09.775Z,-7.40
2018-02-27T17:28:37.325Z,-7.50
2018-02-27T17:31:04.883Z,-7.50
2018-02-27T17:33:32.453Z,-7.50
2018-02-27T17:36:00.004Z,-7.50
2018-02-27T17:38:27.561Z,-7.50
2018-02-27T17:40:55.180Z,-7.50
2018-02-27T17:43:22.758Z,-7.60
2018-02-27T17:45:53.585Z,-7.60
2018-02-27T17:48:22.924Z,-7.60
2018-02-27T17:50:50.553Z,-7.60
2018-02-27T17:53:18.142Z,-7.60
2018-02-27T17:55:45.727Z,-7.60
2018-02-27T17:58:16.254Z,-7.60
2018-02-27T18:00:43.853Z,-7.70
2018-02-27T18:03:11.406Z,-7.70
2018-02-27T18:05:39.729Z,-7.70
2018-02-27T18:08:09.251Z,-7.80
2018-02-27T18:10:36.806Z,-7.80
2018-02-27T18:13:04.372Z,-7.80
2018-02-27T18:15:31.945Z,-7.80
2018-02-27T18:17:59.503Z,-7.90
2018-02-27T18:20:27.121Z,-7.90
2018-02-27T18:22:54.682Z,-7.90
2018-02-27T18:25:22.234Z,-7.90
2018-02-27T18:27:49.827Z,-7.90
2018-02-27T18:30:17.379Z,-7.90
2018-02-27T18:32:44.949Z,-7.90
2018-02-27T18:35:12.504Z,-8.00
2018-02-27T18:37:40.070Z,-8.00
2018-02-27T18:40:07.662Z,-8.00
2018-02-27T18:42:35.218Z,-8.00
2018-02-27T18:45:02.776Z,-8.10
2018-02-27T18:47:30.367Z,-8.10
2018-02-27T18:49:58.694Z,-8.10
2018-02-27T18:52:26.240Z,-8.10
2018-02-27T18:54:53.847Z,-8.20
2018-02-27T18:57:21.400Z,-8.20
2018-02-27T18:59:48.990Z,-8.20
2018-02-27T19:02:16.545Z,-8.30
2018-02-27T19:04:44.881Z,-8.30
2018-02-27T19:07:12.472Z,-8.30
2018-02-27T19:09:40.058Z,-8.30
2018-02-27T19:12:07.660Z,-8.30
2018-02-27T19:14:35.252Z,-8.40
2018-02-27T19:17:03.583Z,-8.40
2018-02-27T19:19:31.153Z,-8.50
2018-02-27T19:21:58.744Z,-8.50
2018-02-27T19:24:26.306Z,-8.60
2018-02-27T19:26:57.602Z,-8.60
2018-02-27T19:29:25.150Z,-8.70
2018-02-27T19:31:52.702Z,-8.70
2018-02-27T19:34:20.821Z,-8.60
2018-02-27T19:36:48.431Z,-8.60
2018-02-27T19:39:16.786Z,-8.60
2018-02-27T19:41:44.355Z,-8.70
2018-02-27T19:44:13.726Z,-8.70
2018-02-27T19:46:41.319Z,-8.70
2018-02-27T19:49:09.628Z,-8.70
2018-02-27T19:51:37.224Z,-8.70
2018-02-27T19:54:04.800Z,-8.70
2018-02-27T19:56:32.364Z,-8.70
2018-02-27T19:59:01.855Z,-8.80
2018-02-27T20:01:29.460Z,-8.80
2018-02-27T20:03:57.011Z,-8.80
2018-02-27T20:06:25.321Z,-8.90
2018-02-27T20:08:52.910Z,-8.90
2018-02-27T20:11:20.467Z,-9.00
2018-02-27T20:13:55.386Z,-9.00
2018-02-27T20:16:22.947Z,-9.00
2018-02-27T20:18:50.522Z,-9.00
2018-02-27T20:21:18.139Z,-9.10
2018-02-27T20:23:51.389Z,-9.10
2018-02-27T20:26:18.982Z,-9.10
2018-02-27T20:28:52.194Z,-9.10
2018-02-27T20:31:19.781Z,-9.20
2018-02-27T20:33:47.343Z,-9.20
2018-02-27T20:36:14.904Z,-9.20
2018-02-27T20:38:54.018Z,-9.20
2018-02-27T20:41:21.639Z,-9.20
2018-02-27T20:43:49.196Z,-9.20
2018-02-27T20:46:16.768Z,-9.30
2018-02-27T20:48:45.098Z,-9.40
2018-02-27T20:51:12.672Z,-9.50
2018-02-27T20:53:40.259Z,-9.50
2018-02-27T20:56:08.588Z,-9.50
2018-02-27T20:58:36.183Z,-9.50
2018-02-27T21:01:03.763Z,-9.50
2018-02-27T21:03:32.080Z,-9.60
2018-02-27T21:05:59.644Z,-9.60
2018-02-27T21:08:27.287Z,-9.60
2018-02-27T21:10:54.840Z,-9.70
2018-02-27T21:13:22.391Z,-9.70
2018-02-27T21:15:50.741Z,-9.70
2018-02-27T21:18:19.303Z,-9.80
2018-02-27T21:20:46.891Z,-9.70
2018-02-27T21:23:14.430Z,-9.80
2018-02-27T21:25:42.081Z,-9.80
2018-02-27T21:28:09.675Z,-9.80
2018-02-27T21:30:37.227Z,-9.80
2018-02-27T21:33:04.775Z,-9.90
2018-02-27T21:35:32.378Z,-9.90
2018-02-27T21:38:00.685Z,-9.90
2018-02-27T21:40:28.252Z,-9.90
2018-02-27T21:42:55.823Z,-9.80
2018-02-27T21:45:23.367Z,-9.80
2018-02-27T21:47:50.940Z,-9.80
2018-02-27T21:50:18.490Z,-9.80
2018-02-27T21:52:46.059Z,-9.90
2018-02-27T21:55:13.638Z,-9.90
2018-02-27T21:57:41.190Z,-10.00
2018-02-27T22:00:08.757Z,-10.00
2018-02-27T22:02:36.378Z,-10.00
2018-02-27T22:05:03.938Z,-10.10
2018-02-27T22:07:31.494Z,-10.10
2018-02-27T22:09:59.068Z,-10.00
2018-02-27T22:12:26.619Z,-10.00
2018-02-27T22:14:54.225Z,-10.00
2018-02-27T22:17:21.778Z,-10.10
2018-02-27T22:19:49.345Z,-10.10
2018-02-27T22:22:16.926Z,-10.10
2018-02-27T22:24:45.253Z,-10.20
2018-02-27T22:27:12.805Z,-10.20
2018-02-27T22:29:40.372Z,-10.20
2018-02-27T22:32:07.929Z,-10.20
2018-02-27T22:34:35.511Z,-10.30
2018-02-27T22:42:48.883Z,-10.40
2018-02-27T22:45:16.476Z,-10.40
2018-02-27T22:47:44.796Z,-10.60
2018-02-27T22:50:12.346Z,-10.60
2018-02-27T22:52:39.994Z,-10.60
2018-02-27T22:55:07.635Z,-10.60
2018-02-27T22:57:36.126Z,-10.60
2018-02-27T23:00:04.544Z,-10.60
2018-02-27T23:02:32.375Z,-10.60
2018-02-27T23:05:00.082Z,-10.50
2018-02-27T23:07:28.484Z,-10.50
2018-02-27T23:09:56.249Z,-10.50
2018-02-27T23:12:23.913Z,-10.50
2018-02-27T23:14:51.597Z,-10.50
2018-02-27T23:17:19.230Z,-10.60
2018-02-27T23:19:46.787Z,-10.70
2018-02-27T23:22:14.346Z,-10.70
2018-02-27T23:24:57.558Z,-10.60
2018-02-27T23:27:26.707Z,-10.70
2018-02-27T23:30:06.598Z,-10.70
2018-02-27T23:32:35.870Z,-10.70
2018-02-27T23:35:13.079Z,-10.70
2018-02-27T23:37:40.636Z,-10.80
2018-02-27T23:40:08.190Z,-10.80
2018-02-27T23:42:35.772Z,-10.80
2018-02-27T23:45:03.322Z,-10.80
2018-02-27T23:47:30.923Z,-10.80
2018-02-27T23:49:59.342Z,-10.80
2018-02-27T23:52:26.906Z,-10.80
2018-02-27T23:54:54.474Z,-10.80
2018-02-27T23:57:22.049Z,-10.80
2018-02-27T23:59:49.611Z,-10.80
